Amboy, MN (56010)

12:43 AM CST on February 09, 2016 (GMT -0600)
Golly Farms | | Change Station
CLOSE
Current Station
Personal Weather Station
Location: Winnebago, MN
Elevation: 1079 ft
Nearby Weather Stations

Elev 1079 ft 43.80 °N, 94.20 °W | Updated 3 minutes ago

Overcast
Overcast
9.1 °F
Feels Like -10 °F
N
19.0
Wind Variable Wind from North
Gusts 22.0 mph

Today
High -- | Low -- °F
--% Chance of Precip.
Yesterday
High -- | Low -- °F
Precip. -- in
Pressure 30.06 in
Visibility 10.0 miles
Clouds Overcast 5000 ft
Windchill -10 °F
Dew Point 5 °F
Humidity 84%
Rainfall 0.00 in
Snow Depth Not available.
7:24 AM 5:37 PM
New Moon, 1% visible
METAR KJYG 090635Z AUTO 32021G27KT 10SM OVC050 M12/M15 A3006 RMK AO2
Pressure 30.06 in
Visibility 10.0 miles
Clouds Overcast 5000 ft
Windchill -10 °F
Dew Point 5 °F
Humidity 84%
Rainfall 0.00 in
Snow Depth Not available.
7:24 AM 5:37 PM
New Moon, 1% visible
METAR KJYG 090635Z AUTO 32021G27KT 10SM OVC050 M12/M15 A3006 RMK AO2

10-Day Weather Forecast

Almanac

Astronomy

Feb. 09, 2016 Rise Set
Actual Time
Civil Twilight
Nautical Twilight
Astronomical Twilight
Moon
Length of Visible Light
Length of Day
Tomorrow will be .
, % of the Moon is Illuminated

Today's Extremes

State Highs State Lows

Community

WunderPhotos

Upload Photos

1,891,571 photos uploaded!

WunderBlog® & News

Nearby

Air Quality

  Air Quality AQ Index Pollutant
Not available.

Snow Depth

Station Depth Elevation

Earthquake Activity

City Distance Mag. Time & Date
Minimum magnitude displayed is 2.5.

Coastal Water Temperatures

Place Temperature

Stations

Nearby Weather Stations

Station Location Temp. Windchill Dew Point Humidity Wind Precip. Elev Updated Type
                   

Watches & Warnings

There are currently no watches in effect.